Time;durP1;ratioP1;P1;durP2;ratioP2;P2;SDS_P1;SDS_P2;PMS_P1;PMS_P2;Temp;Humidity;BMP_temperature;BMP_pressure;BME280_temperature;BME280_humidity;BME280_pressure;Samples;Min_cycle;Max_cycle;Signal;HPM_P1;HPM_P2
2021/08/01 00:00:44;;;;;;;21.23;19.05;;;;;;;21.21;100.00;100550.83;1798509;78;21140;-89
2021/08/01 00:03:11;;;;;;;25.00;19.27;;;;;;;21.17;100.00;100554.03;1798385;78;21130;-88
2021/08/01 00:05:38;;;;;;;22.40;20.05;;;;;;;21.14;100.00;100549.10;1798448;78;21013;-89
2021/08/01 00:08:06;;;;;;;24.87;20.15;;;;;;;21.12;100.00;100554.08;1798327;78;21056;-88
2021/08/01 00:10:33;;;;;;;21.55;19.37;;;;;;;21.14;100.00;100552.59;1798727;78;21094;-88
2021/08/01 00:13:01;;;;;;;20.57;18.40;;;;;;;21.09;100.00;100554.95;1828696;78;21145;-88
2021/08/01 00:15:28;;;;;;;22.93;18.77;;;;;;;21.09;100.00;100553.63;1798461;78;21013;-90
2021/08/01 00:17:56;;;;;;;22.10;18.40;;;;;;;21.10;100.00;100549.98;1798492;78;21009;-88
2021/08/01 00:20:23;;;;;;;19.70;17.60;;;;;;;21.08;100.00;100554.15;1798309;78;21548;-88
2021/08/01 00:22:51;;;;;;;21.35;17.70;;;;;;;21.03;100.00;100554.38;1798625;78;20997;-89
2021/08/01 00:25:18;;;;;;;20.05;17.65;;;;;;;20.98;100.00;100560.75;1798479;78;21100;-88
2021/08/01 00:27:45;;;;;;;18.77;16.82;;;;;;;20.94;100.00;100562.42;1798785;78;21073;-89
2021/08/01 00:30:12;;;;;;;18.77;16.97;;;;;;;20.94;100.00;100560.30;1798467;78;21052;-88
2021/08/01 00:32:40;;;;;;;21.42;18.07;;;;;;;20.87;100.00;100562.05;1798752;78;20997;-88
2021/08/01 00:35:08;;;;;;;24.02;17.55;;;;;;;20.78;100.00;100559.98;1828631;78;21087;-88
2021/08/01 00:37:37;;;;;;;20.50;18.60;;;;;;;20.83;100.00;100559.44;1828561;78;21045;-86
2021/08/01 00:40:06;;;;;;;20.43;18.52;;;;;;;20.79;100.00;100561.11;1798588;78;21056;-86
2021/08/01 00:42:34;;;;;;;21.57;19.37;;;;;;;20.72;100.00;100561.50;1798556;78;21009;-87
2021/08/01 00:45:03;;;;;;;19.70;17.67;;;;;;;20.68;100.00;100562.05;1798472;78;21037;-87
2021/08/01 11:11:17;;;;;;;11.28;10.15;;;;;;;32.65;58.95;100567.28;1788808;77;21299;-87
2021/08/01 11:13:48;;;;;;;12.70;11.50;;;;;;;32.66;54.85;100568.91;1752465;78;21091;-87
2021/08/01 11:16:32;;;;;;;;;;;;;;;32.71;54.10;100568.94;1779480;79;20972;-87
2021/08/01 11:19:03;;;;;;;12.82;11.63;;;;;;;32.79;48.79;100569.53;1799402;78;20611;-88
2021/08/01 11:21:39;;;;;;;11.68;9.78;;;;;;;32.88;53.17;100570.08;1722976;81;21069;-88
2021/08/01 11:24:10;;;;;;;11.97;10.75;;;;;;;33.02;53.63;100573.08;1726594;79;21100;-88
2021/08/01 11:26:43;;;;;;;12.78;10.03;;;;;;;33.14;55.98;100568.78;1766686;79;21140;-88
2021/08/01 11:29:11;;;;;;;11.05;9.88;;;;;;;33.21;52.33;100567.18;1786486;76;21060;-87
2021/08/01 11:31:39;;;;;;;10.82;9.83;;;;;;;33.30;46.17;100564.19;1789092;79;21049;-88
2021/08/01 11:34:22;;;;;;;11.43;10.23;;;;;;;33.34;44.97;100560.45;1719063;79;21555;-88
2021/08/01 11:36:52;;;;;;;9.68;8.95;;;;;;;33.24;44.97;100561.78;1749357;80;21112;-88
2021/08/01 11:39:23;;;;;;;10.68;9.65;;;;;;;33.07;47.22;100564.72;1735116;81;21084;-88
2021/08/01 11:41:50;;;;;;;11.35;10.20;;;;;;;32.99;46.59;100566.06;1727602;81;22064;-88
2021/08/01 11:44:23;;;;;;;11.15;10.00;;;;;;;33.02;47.14;100566.34;1725528;80;21077;-88
2021/08/01 11:47:00;;;;;;;10.00;9.10;;;;;;;33.09;45.17;100559.31;1773746;79;20995;-88
2021/08/01 11:49:44;;;;;;;10.18;9.00;;;;;;;33.16;47.38;100559.06;1739161;80;21211;-88
2021/08/01 11:52:13;;;;;;;10.35;9.33;;;;;;;33.22;44.63;100557.19;1760887;80;21019;-88
2021/08/01 11:54:43;;;;;;;12.73;9.58;;;;;;;33.34;46.44;100558.57;1739307;80;21031;-88
2021/08/01 11:57:13;;;;;;;10.15;8.73;;;;;;;33.48;49.81;100560.72;1715003;81;22602;-88
2021/08/01 11:59:43;;;;;;;9.75;8.85;;;;;;;33.52;44.25;100555.59;1715291;81;21200;-89
2021/08/01 12:02:14;;;;;;;10.82;9.13;;;;;;;33.52;46.89;100557.76;1739934;81;21080;-88
2021/08/01 12:04:56;;;;;;;9.85;9.05;;;;;;;33.46;43.26;100553.42;1739667;81;21129;-88
2021/08/01 12:07:44;;;;;;;22.65;11.00;;;;;;;33.45;44.40;100549.93;1737950;81;21133;-88
2021/08/01 12:10:25;;;;;;;9.60;8.75;;;;;;;33.55;43.33;100553.70;1739396;80;21002;-89
2021/08/01 12:12:56;;;;;;;10.13;9.05;;;;;;;33.59;42.50;100551.55;1769315;80;21420;-88
2021/08/01 12:15:26;;;;;;;9.87;8.87;;;;;;;33.64;45.05;100551.53;1741714;81;21279;-88
2021/08/01 12:17:53;;;;;;;9.93;9.00;;;;;;;33.75;46.88;100554.22;1767295;80;21062;-87
2021/08/01 12:20:32;;;;;;;10.05;9.25;;;;;;;33.85;47.16;100550.19;1741314;80;21529;-88
2021/08/01 12:22:59;;;;;;;9.45;8.60;;;;;;;34.05;46.75;100552.55;1736138;81;20967;-88
2021/08/01 12:25:27;;;;;;;9.45;8.65;;;;;;;34.05;46.75;100552.55;1737656;81;21145;-88
2021/08/01 12:27:55;;;;;;;9.90;8.88;;;;;;;34.04;45.39;100551.75;1713048;81;20932;-88
2021/08/01 12:30:24;;;;;;;9.97;9.07;;;;;;;34.08;47.37;100550.10;1737879;81;21431;-88
2021/08/01 12:32:53;;;;;;;9.18;8.40;;;;;;;34.13;48.27;100551.98;1737589;81;21059;-88
2021/08/01 12:35:26;;;;;;;10.28;9.38;;;;;;;34.10;48.77;100545.77;1737696;81;21025;-88
2021/08/01 12:38:00;;;;;;;9.90;8.90;;;;;;;34.08;48.57;100553.36;1713291;81;21114;-89
2021/08/01 12:40:32;;;;;;;9.45;8.45;;;;;;;34.08;45.68;100550.66;1737888;81;21870;-88
2021/08/01 12:43:08;;;;;;;9.78;8.55;;;;;;;34.14;45.73;100554.95;1737582;81;21046;-88
2021/08/01 12:45:43;;;;;;;9.98;8.73;;;;;;;34.16;45.45;100549.27;1737522;81;21545;-88
2021/08/01 12:48:21;;;;;;;9.13;8.33;;;;;;;34.16;44.26;100543.86;1713105;81;21066;-89
2021/08/01 12:50:51;;;;;;;9.93;9.10;;;;;;;34.20;45.21;100544.94;1714978;80;21065;-89
2021/08/01 12:53:25;;;;;;;9.85;8.83;;;;;;;34.11;45.07;100545.52;1737866;80;21138;-89
2021/08/01 12:55:56;;;;;;;9.53;8.48;;;;;;;34.02;46.96;100550.39;1713465;80;20984;-88
2021/08/01 12:58:32;;;;;;;9.15;8.28;;;;;;;33.98;44.83;100544.73;1737641;81;21542;-88
2021/08/01 13:01:03;;;;;;;8.95;8.15;;;;;;;33.97;43.47;100545.83;1737782;80;21019;-89
2021/08/01 13:03:44;;;;;;;;;;;;;;;34.01;44.50;100542.05;1716026;81;21604;-89
2021/08/01 13:06:17;;;;;;;8.13;7.42;;;;;;;34.08;44.73;100546.05;1738309;80;20101;-89
2021/08/01 13:08:48;;;;;;;8.65;7.85;;;;;;;34.15;47.74;100537.67;1737698;81;20936;-89
2021/08/01 13:11:24;;;;;;;;;;;;;;;34.20;45.58;100539.54;1740553;80;21047;-89
2021/08/01 13:13:57;;;;;;;9.13;8.40;;;;;;;34.21;45.18;100533.85;1759469;80;20113;-89
2021/08/01 13:36:05;;;;;;;8.15;7.50;;;;;;;34.43;43.30;100525.41;1723714;77;21133;-85
2021/08/01 13:38:32;;;;;;;8.55;7.85;;;;;;;34.51;43.75;100529.97;1709165;80;20993;-86
2021/08/01 13:40:59;;;;;;;9.38;7.95;;;;;;;34.55;41.52;100533.71;1733740;81;21001;-88
2021/08/01 13:43:27;;;;;;;8.85;7.95;;;;;;;34.59;42.81;100536.94;1733067;81;20949;-87
2021/08/01 13:45:54;;;;;;;8.20;7.42;;;;;;;34.56;42.81;100532.63;1732879;81;21040;-90
2021/08/01 13:48:21;;;;;;;9.13;8.23;;;;;;;34.54;43.84;100530.73;1737043;81;21088;-88
2021/08/01 13:50:48;;;;;;;8.63;7.75;;;;;;;34.51;41.04;100530.77;1734801;80;21005;-85
2021/08/01 13:53:17;;;;;;;8.03;7.22;;;;;;;34.49;43.30;100526.20;1736649;80;21499;-88
2021/08/01 13:55:44;;;;;;;10.55;7.90;;;;;;;34.46;39.62;100517.81;1734636;80;21045;-88
2021/08/01 13:58:12;;;;;;;7.72;7.15;;;;;;;34.37;39.44;100513.02;1737735;80;21104;-86
2021/08/01 14:00:39;;;;;;;8.63;7.83;;;;;;;34.39;39.14;100516.78;1736936;81;21013;-87
2021/08/01 14:03:09;;;;;;;11.25;9.63;;;;;;;34.40;43.09;100514.35;1736426;81;21080;-88
2021/08/01 14:05:36;;;;;;;8.48;7.67;;;;;;;34.36;43.89;100510.55;1759966;80;21045;-88
2021/08/01 14:08:04;;;;;;;9.00;8.20;;;;;;;34.32;42.83;100510.30;1733727;80;21063;-88
2021/08/01 14:10:31;;;;;;;8.65;7.95;;;;;;;34.28;43.21;100505.99;1736553;81;21154;-89
2021/08/01 14:12:58;;;;;;;8.95;8.23;;;;;;;34.16;39.65;100499.30;1736874;81;21041;-88
2021/08/01 14:15:27;;;;;;;8.78;7.80;;;;;;;34.01;39.08;100500.19;1764945;80;20972;-89
2021/08/01 14:17:54;;;;;;;8.25;7.55;;;;;;;33.91;39.06;100505.05;1758165;80;21048;-86
2021/08/01 14:20:22;;;;;;;8.95;8.15;;;;;;;33.84;40.96;100501.28;1700695;82;21064;-90
2021/08/01 14:22:49;;;;;;;8.40;7.60;;;;;;;33.77;41.09;100498.87;1711145;82;21595;-86
2021/08/01 14:25:16;;;;;;;8.70;7.80;;;;;;;33.72;41.01;100494.84;1718365;82;21488;-87
2021/08/01 14:27:43;;;;;;;8.35;7.55;;;;;;;33.65;43.98;100491.06;1730628;81;21115;-85
2021/08/01 14:30:12;;;;;;;8.65;7.92;;;;;;;33.65;43.98;100491.06;1718154;82;21029;-88
2021/08/01 14:32:47;;;;;;;8.90;8.10;;;;;;;33.57;42.24;100487.58;1706013;81;21093;-88
2021/08/01 14:35:15;;;;;;;9.20;8.28;;;;;;;33.48;41.62;100478.41;1704712;82;22385;-90
2021/08/01 14:37:45;;;;;;;11.53;8.35;;;;;;;33.45;42.77;100476.28;1723477;81;21081;-89
2021/08/01 14:40:16;;;;;;;9.18;8.28;;;;;;;33.42;42.96;100468.72;1733647;81;21088;-88
2021/08/01 14:42:46;;;;;;;9.13;8.33;;;;;;;33.39;44.13;100465.20;1647300;84;21078;-88
2021/08/01 14:45:13;;;;;;;;;;;;;;;33.36;45.81;100462.52;1689434;82;21641;-88
2021/08/01 14:47:43;;;;;;;8.85;8.13;;;;;;;33.27;45.92;100461.41;1703511;83;21089;-87
2021/08/01 14:50:28;;;;;;;9.45;8.58;;;;;;;33.11;45.97;100459.28;1686302;82;21107;-88
2021/08/01 14:53:05;;;;;;;8.93;8.05;;;;;;;32.96;45.27;100463.61;1697412;82;20966;-85
2021/08/01 14:55:54;;;;;;;9.25;8.23;;;;;;;32.84;45.75;100465.74;1706321;82;21127;-88
2021/08/01 14:58:30;;;;;;;9.73;8.83;;;;;;;32.71;46.56;100465.70;1731915;82;20946;-87
2021/08/01 15:01:31;;;;;;;9.70;8.90;;;;;;;32.60;47.20;100464.88;1702183;82;21202;-87
2021/08/01 15:04:19;;;;;;;9.30;8.40;;;;;;;32.51;46.67;100454.34;1700053;82;20997;-85
2021/08/01 15:07:26;;;;;;;;;;;;;;;;;;;;;
2021/08/01 15:10:11;;;;;;;9.35;8.55;;;;;;;32.31;48.26;100455.94;1730090;80;20151;-87
2021/08/01 15:12:50;;;;;;;11.88;8.70;;;;;;;32.24;49.84;100454.03;1641399;86;21135;-88
2021/08/01 15:15:33;;;;;;;;;;;;;;;;;;;;;
2021/08/01 15:18:02;;;;;;;12.23;8.68;;;;;;;32.07;48.40;100454.19;1582794;89;21181;-87
2021/08/01 15:20:30;;;;;;;23.38;9.60;;;;;;;32.00;49.57;100451.77;1639248;85;21131;-87
2021/08/01 15:23:03;;;;;;;17.92;10.18;;;;;;;31.92;51.82;100452.27;1633987;85;21089;-87
2021/08/01 15:25:34;;;;;;;9.65;8.80;;;;;;;31.86;51.61;100450.60;1609353;87;21088;-87
2021/08/01 15:28:03;;;;;;;14.87;9.75;;;;;;;31.78;51.84;100447.34;1635004;85;22325;-86
2021/08/01 15:30:38;;;;;;;10.98;9.88;;;;;;;31.73;55.11;100451.36;1681609;82;20981;-87
2021/08/01 15:33:06;;;;;;;10.32;9.43;;;;;;;31.67;53.00;100450.24;1711738;81;21248;-88
2021/08/01 15:35:35;;;;;;;9.88;9.00;;;;;;;31.63;54.76;100447.23;1686964;82;21516;-88
2021/08/01 15:38:08;;;;;;;10.40;9.28;;;;;;;31.59;56.02;100446.14;1638514;85;21566;-86
2021/08/01 15:40:36;;;;;;;10.15;9.18;;;;;;;31.57;55.88;100441.55;1654761;82;21526;-86
2021/08/01 15:43:04;;;;;;;10.63;9.53;;;;;;;31.52;58.85;100434.81;1694320;82;21709;-86
2021/08/01 15:45:32;;;;;;;9.65;8.78;;;;;;;31.47;56.89;100435.59;1686969;82;21048;-89
2021/08/01 15:48:02;;;;;;;10.20;9.20;;;;;;;31.42;61.75;100433.67;1687312;83;21227;-84
2021/08/01 15:50:31;;;;;;;10.45;9.40;;;;;;;31.38;58.86;100434.45;1679842;84;20951;-86
2021/08/01 15:53:21;;;;;;;25.97;11.05;;;;;;;31.35;61.86;100437.64;1684394;83;21132;-89
2021/08/01 15:56:02;;;;;;;20.37;9.85;;;;;;;31.30;64.57;100434.38;1716612;82;21159;-87
2021/08/01 15:59:03;;;;;;;12.30;10.28;;;;;;;31.23;65.92;100437.31;1669228;82;21037;-85
2021/08/01 16:01:43;;;;;;;13.95;10.08;;;;;;;31.19;66.34;100439.44;1701441;82;20981;-87
2021/08/01 16:04:25;;;;;;;13.03;10.37;;;;;;;31.10;66.56;100434.53;1722707;80;21097;-88
2021/08/01 16:06:55;;;;;;;16.17;10.05;;;;;;;31.05;67.43;100445.20;1655488;84;21354;-86
2021/08/01 16:09:36;;;;;;;12.37;9.83;;;;;;;30.98;77.98;100441.91;1678288;83;21098;-86
2021/08/01 16:12:08;;;;;;;12.73;9.70;;;;;;;30.89;82.65;100440.79;1670593;83;21030;-86
2021/08/01 16:14:39;;;;;;;10.68;9.68;;;;;;;30.80;87.27;100433.70;1673354;83;21091;-86
2021/08/01 16:17:17;;;;;;;12.33;9.48;;;;;;;30.67;89.16;100434.41;1671262;82;21066;-85
2021/08/01 16:19:45;;;;;;;10.93;10.03;;;;;;;30.55;91.74;100432.40;1706138;82;21637;-87
2021/08/01 16:22:14;;;;;;;14.45;10.35;;;;;;;30.42;94.83;100430.89;1688722;83;21046;-89
2021/08/01 16:24:41;;;;;;;41.83;12.43;;;;;;;30.32;100.00;100429.47;1715105;82;21073;-88
2021/08/01 16:27:11;;;;;;;46.60;14.43;;;;;;;30.22;100.00;100424.77;1717789;83;21093;-85
2021/08/01 16:29:40;;;;;;;;;;;;;;;30.11;100.00;100421.16;1720965;83;21544;-89
2021/08/01 16:32:10;;;;;;;93.82;30.37;;;;;;;30.00;100.00;100428.83;1683714;83;20881;-88
2021/08/01 16:34:40;;;;;;;94.72;30.75;;;;;;;29.87;100.00;100433.45;1667758;84;21635;-92
2021/08/01 16:37:07;;;;;;;115.52;26.40;;;;;;;29.76;100.00;100441.11;1662913;85;21405;-86
2021/08/01 16:39:34;;;;;;;95.90;21.68;;;;;;;29.66;100.00;100440.97;1657067;84;21088;-84
2021/08/01 16:42:07;;;;;;;55.45;17.95;;;;;;;29.57;100.00;100436.53;1652829;85;21120;-87
2021/08/01 16:45:08;;;;;;;53.90;15.68;;;;;;;29.48;100.00;100442.06;1653488;84;21100;-87
2021/08/01 16:47:53;;;;;;;61.98;15.08;;;;;;;29.39;100.00;100442.98;1647750;85;21512;-86
2021/08/01 16:50:31;;;;;;;74.53;15.28;;;;;;;29.27;100.00;100451.92;1612693;86;21019;-89
2021/08/01 16:53:12;;;;;;;78.10;17.25;;;;;;;29.14;100.00;100450.88;1622233;86;21031;-87
2021/08/01 16:55:55;;;;;;;63.25;15.80;;;;;;;29.05;100.00;100449.14;1708371;82;21025;-87
2021/08/01 16:58:31;;;;;;;51.90;14.60;;;;;;;28.94;100.00;100452.19;1689961;82;21113;-90
2021/08/01 17:01:02;;;;;;;39.53;13.60;;;;;;;28.85;100.00;100458.16;1688501;82;21082;-88
2021/08/01 17:03:51;;;;;;;36.58;13.32;;;;;;;28.74;100.00;100452.64;1709534;82;21498;-94
2021/08/01 17:06:32;;;;;;;27.48;12.60;;;;;;;28.63;100.00;100460.16;1710421;82;21543;-91
2021/08/01 17:09:03;;;;;;;47.88;13.48;;;;;;;28.49;100.00;100461.80;1686322;83;21143;-90
2021/08/01 17:11:36;;;;;;;33.18;13.28;;;;;;;28.39;100.00;100463.47;1693673;82;21088;-88
2021/08/01 17:14:05;;;;;;;36.33;13.30;;;;;;;28.27;100.00;100465.65;1703847;82;21124;-89
2021/08/01 17:16:36;;;;;;;40.95;13.88;;;;;;;28.16;100.00;100469.19;1730597;82;21001;-86
2021/08/01 17:19:10;;;;;;;36.13;13.55;;;;;;;28.06;100.00;100470.27;1700487;82;21075;-90
2021/08/01 17:21:38;;;;;;;46.95;14.45;;;;;;;27.96;100.00;100465.52;1731510;82;21016;-88
2021/08/01 17:24:06;;;;;;;29.52;14.18;;;;;;;27.84;100.00;100467.67;1676499;82;21120;-88
2021/08/01 17:26:37;;;;;;;69.97;16.07;;;;;;;27.77;100.00;100474.18;1688282;83;20934;-89
2021/08/01 17:29:04;;;;;;;53.55;16.02;;;;;;;27.67;100.00;100468.09;1717044;83;21646;-88
2021/08/01 17:31:36;;;;;;;49.58;15.70;;;;;;;27.57;100.00;100468.68;1715120;82;21026;-89
2021/08/01 17:34:07;;;;;;;47.45;15.80;;;;;;;27.47;100.00;100476.45;1697693;82;21188;-87
2021/08/01 17:36:47;;;;;;;32.45;15.55;;;;;;;27.40;100.00;100484.03;1690702;82;21107;-89
2021/08/01 17:39:19;;;;;;;27.55;14.90;;;;;;;27.34;100.00;100487.63;1719545;81;21203;-90
2021/08/01 17:41:47;;;;;;;28.45;15.50;;;;;;;27.28;100.00;100487.20;1722640;80;20992;-89
2021/08/01 17:44:14;;;;;;;32.20;14.18;;;;;;;27.20;100.00;100486.22;1689522;82;21683;-88
2021/08/01 17:46:45;;;;;;;26.87;16.50;;;;;;;27.13;100.00;100496.17;1659649;85;21026;-90
2021/08/01 17:49:12;;;;;;;27.05;15.83;;;;;;;27.05;100.00;100495.45;1673408;83;22026;-86
2021/08/01 17:51:40;;;;;;;16.40;14.80;;;;;;;27.00;100.00;100495.34;1672360;83;21123;-86
2021/08/01 17:54:07;;;;;;;18.12;13.93;;;;;;;26.95;100.00;100502.40;1672007;83;21223;-88
2021/08/01 17:56:35;;;;;;;20.35;14.43;;;;;;;26.86;100.00;100500.05;1659327;85;21682;-88
2021/08/01 17:59:03;;;;;;;20.57;14.68;;;;;;;26.79;100.00;100510.00;1671436;83;21154;-85
2021/08/01 18:01:31;;;;;;;23.22;17.45;;;;;;;26.70;100.00;100513.48;1676997;83;21347;-90
2021/08/01 18:03:58;;;;;;;26.12;16.55;;;;;;;26.64;100.00;100510.36;1696313;83;21029;-89
2021/08/01 18:06:30;;;;;;;21.82;16.07;;;;;;;26.58;100.00;100505.92;1658900;84;21069;-90
2021/08/01 18:09:10;;;;;;;21.42;18.55;;;;;;;26.51;100.00;100505.20;1665374;84;21026;-89
2021/08/01 18:11:42;;;;;;;19.60;16.07;;;;;;;26.44;100.00;100507.97;1660632;84;21155;-92
2021/08/01 18:14:14;;;;;;;19.55;17.27;;;;;;;26.37;100.00;100508.03;1658731;83;21089;-90
2021/08/01 18:16:48;;;;;;;23.57;17.00;;;;;;;26.29;100.00;100511.00;1676377;83;21104;-92
2021/08/01 18:19:21;;;;;;;17.45;15.63;;;;;;;26.24;100.00;100522.88;1709552;82;21029;-90
2021/08/01 18:21:52;;;;;;;22.25;16.60;;;;;;;26.16;100.00;100525.83;1725008;81;21041;-91
2021/08/01 18:24:19;;;;;;;18.45;16.30;;;;;;;26.06;100.00;100517.78;1688242;82;22404;-94
2021/08/01 18:26:48;;;;;;;19.70;17.57;;;;;;;25.99;100.00;100524.50;1717911;82;21694;-90
2021/08/01 18:29:16;;;;;;;19.80;17.55;;;;;;;25.93;100.00;100516.05;1717097;82;21013;-91
2021/08/01 18:31:44;;;;;;;23.45;17.35;;;;;;;25.87;100.00;100522.77;1685147;82;21027;-90
2021/08/01 18:34:15;;;;;;;19.73;17.65;;;;;;;25.83;100.00;100527.23;1688187;83;21055;-92
2021/08/01 18:36:43;;;;;;;26.60;18.15;;;;;;;25.80;100.00;100518.33;1689988;81;21081;-89
2021/08/01 18:39:14;;;;;;;19.67;17.70;;;;;;;25.76;100.00;100519.78;1694516;83;21867;-90
2021/08/01 18:41:41;;;;;;;28.57;17.40;;;;;;;25.72;100.00;100516.47;1709539;82;21074;-90
2021/08/01 18:44:09;;;;;;;22.75;17.98;;;;;;;25.67;100.00;100518.45;1721660;81;21521;-90
2021/08/01 18:46:39;;;;;;;24.52;17.40;;;;;;;25.63;100.00;100517.23;1689364;83;21065;-88
2021/08/01 18:49:06;;;;;;;20.32;17.48;;;;;;;25.57;100.00;100518.11;1646004;84;21614;-91
2021/08/01 18:51:35;;;;;;;19.57;17.57;;;;;;;25.51;100.00;100509.97;1653277;85;21184;-89
2021/08/01 18:54:07;;;;;;;25.37;17.32;;;;;;;25.45;100.00;100514.00;1688462;82;21006;-87
2021/08/01 18:56:38;;;;;;;30.37;17.50;;;;;;;25.39;100.00;100518.87;1674634;83;21095;-90
2021/08/01 18:59:09;;;;;;;21.12;16.85;;;;;;;25.33;100.00;100517.33;1674561;82;21116;-92
2021/08/01 19:01:39;;;;;;;26.07;17.50;;;;;;;25.27;100.00;100517.39;1697126;82;21060;-90
2021/08/01 19:04:07;;;;;;;19.93;17.90;;;;;;;25.22;100.00;100522.52;1674905;83;21326;-90
2021/08/01 19:06:37;;;;;;;19.50;17.55;;;;;;;25.16;100.00;100526.36;1662074;84;21522;-90
2021/08/01 19:09:06;;;;;;;19.80;17.82;;;;;;;25.11;100.00;100520.88;1656371;84;21021;-90
2021/08/01 19:11:35;;;;;;;20.52;18.32;;;;;;;25.06;100.00;100514.55;1693714;82;21912;-89
2021/08/01 19:14:03;;;;;;;19.45;17.42;;;;;;;25.03;100.00;100518.45;1697128;82;21072;-89
2021/08/01 19:16:57;;;;;;;21.02;18.90;;;;;;;25.00;100.00;100521.53;1693280;81;21609;-89
2021/08/01 19:19:29;;;;;;;23.67;19.37;;;;;;;24.97;100.00;100517.95;1684792;82;21113;-90
2021/08/01 19:22:04;;;;;;;22.60;19.10;;;;;;;24.95;100.00;100521.38;1700145;81;21055;-91
2021/08/01 19:24:43;;;;;;;20.85;18.17;;;;;;;24.89;100.00;100521.17;1707868;81;21072;-88
2021/08/01 19:27:10;;;;;;;33.18;19.50;;;;;;;24.86;100.00;100511.46;1689455;83;21079;-89
2021/08/01 19:29:39;;;;;;;32.20;19.52;;;;;;;24.82;100.00;100505.75;1671928;83;21102;-90
2021/08/01 19:32:08;;;;;;;21.42;19.12;;;;;;;24.79;100.00;100504.86;1710305;80;21574;-87
2021/08/01 19:34:36;;;;;;;23.15;18.65;;;;;;;24.72;100.00;100504.05;1726277;81;21082;-88
2021/08/01 19:37:07;;;;;;;28.12;19.15;;;;;;;24.66;100.00;100504.87;1704290;80;21088;-88
2021/08/01 19:39:40;;;;;;;25.40;19.10;;;;;;;24.58;100.00;100502.75;1710638;82;21616;-87
2021/08/01 19:42:10;;;;;;;23.77;19.30;;;;;;;24.53;100.00;100505.24;1691272;82;21214;-86
2021/08/01 19:44:38;;;;;;;21.02;18.10;;;;;;;24.48;100.00;100501.05;1675921;83;21025;-91
2021/08/01 19:47:07;;;;;;;22.48;18.48;;;;;;;24.41;100.00;100507.73;1677279;82;21096;-92
2021/08/01 19:49:37;;;;;;;20.17;18.15;;;;;;;24.35;100.00;100505.09;1619129;86;21175;-88
2021/08/01 19:52:05;;;;;;;22.07;18.25;;;;;;;24.28;100.00;100498.45;1654930;86;21113;-89
2021/08/01 19:54:32;;;;;;;25.95;19.80;;;;;;;24.22;100.00;100494.80;1672645;83;21122;-91
2021/08/01 19:57:02;;;;;;;22.32;19.00;;;;;;;24.20;100.00;100495.52;1701338;82;21733;-88
2021/08/01 19:59:30;;;;;;;20.72;18.75;;;;;;;24.18;100.00;100496.76;1705353;82;21091;-90
2021/08/01 20:02:12;;;;;;;;;;;;;;;;;;;;;
2021/08/01 20:04:29;;;;;;;22.90;19.02;;;;;;;24.09;100.00;100493.48;1691817;81;21139;-91
2021/08/01 20:07:00;;;;;;;20.25;18.32;;;;;;;24.05;100.00;100481.64;1703831;83;21526;-93
2021/08/01 20:09:33;;;;;;;21.15;19.02;;;;;;;24.02;100.00;100483.38;1705369;83;21065;-91
2021/08/01 20:12:03;;;;;;;20.60;18.57;;;;;;;24.00;100.00;100488.08;1681376;82;21021;-91
2021/08/01 20:14:30;;;;;;;19.67;17.62;;;;;;;23.96;100.00;100482.89;1682753;81;21090;-88
2021/08/01 20:16:59;;;;;;;21.42;19.32;;;;;;;23.90;100.00;100478.68;1742358;81;21601;-90
2021/08/01 20:19:28;;;;;;;25.37;20.17;;;;;;;23.84;100.00;100480.01;1730688;82;21052;-90
2021/08/01 20:21:55;;;;;;;22.32;19.85;;;;;;;23.82;100.00;100471.41;1690301;82;21122;-90
2021/08/01 20:24:32;;;;;;;;;;;;;;;;;;;;;
2021/08/01 20:26:53;;;;;;;22.75;20.25;;;;;;;23.74;100.00;100471.94;1602770;88;21248;-93
2021/08/01 20:29:20;;;;;;;21.50;19.50;;;;;;;23.71;100.00;100467.55;1669603;83;21081;-89
2021/08/01 20:31:50;;;;;;;23.18;19.98;;;;;;;23.67;100.00;100469.00;1685569;84;21436;-88
2021/08/01 20:34:17;;;;;;;28.02;20.00;;;;;;;23.63;100.00;100464.61;1691526;84;21436;-91
2021/08/01 20:36:45;;;;;;;21.93;19.82;;;;;;;23.60;100.00;100464.48;1697091;83;21052;-90
2021/08/01 20:39:12;;;;;;;21.87;19.77;;;;;;;23.60;100.00;100465.81;1717871;83;21080;-88
2021/08/01 20:41:39;;;;;;;25.52;19.82;;;;;;;23.58;100.00;100460.40;1665086;84;21032;-88
2021/08/01 20:44:07;;;;;;;21.97;19.98;;;;;;;23.58;100.00;100469.20;1693710;83;21217;-91
2021/08/01 20:46:36;;;;;;;23.27;21.00;;;;;;;23.56;100.00;100472.57;1687468;83;20962;-87
2021/08/01 20:49:03;;;;;;;23.35;20.92;;;;;;;23.53;100.00;100470.31;1688442;84;21016;-89
2021/08/01 20:51:30;;;;;;;22.40;20.02;;;;;;;23.51;100.00;100469.72;1640243;84;21033;-88
2021/08/01 20:53:57;;;;;;;22.73;20.43;;;;;;;23.50;100.00;100460.60;1675128;81;21085;-87
2021/08/01 20:56:24;;;;;;;24.67;20.40;;;;;;;23.48;100.00;100465.61;1698483;83;21121;-91
2021/08/01 20:58:54;;;;;;;21.65;19.55;;;;;;;23.48;100.00;100464.80;1689471;83;20955;-88
2021/08/01 21:01:21;;;;;;;23.35;21.00;;;;;;;23.46;100.00;100472.98;1700709;82;21230;-90
2021/08/01 21:03:51;;;;;;;22.30;20.12;;;;;;;23.43;100.00;100472.58;1716207;80;21618;-89
2021/08/01 21:06:19;;;;;;;27.17;21.50;;;;;;;23.40;100.00;100479.62;1698181;82;21057;-88
2021/08/01 21:08:46;;;;;;;24.30;20.40;;;;;;;23.35;100.00;100474.91;1691941;83;21076;-88
2021/08/01 21:11:13;;;;;;;24.20;21.50;;;;;;;23.33;100.00;100480.13;1690315;83;21111;-88
2021/08/01 21:13:43;;;;;;;24.18;21.62;;;;;;;23.30;100.00;100478.70;1681482;83;21563;-87
2021/08/01 21:16:12;;;;;;;25.95;23.30;;;;;;;23.26;100.00;100483.59;1704354;82;20967;-88
2021/08/01 21:18:41;;;;;;;30.90;23.25;;;;;;;23.23;100.00;100481.34;1716620;80;21210;-88
2021/08/01 21:21:12;;;;;;;24.27;21.97;;;;;;;23.19;100.00;100486.77;1690490;81;21216;-88
2021/08/01 21:23:37;;;;;;;25.82;23.12;;;;;;;23.14;100.00;100485.17;1704886;81;21480;-88
2021/08/01 21:26:04;;;;;;;28.45;23.50;;;;;;;23.08;100.00;100483.33;1697088;82;21059;-91
2021/08/01 21:28:31;;;;;;;31.57;24.65;;;;;;;23.05;100.00;100483.22;1689585;82;21121;-87
2021/08/01 21:31:00;;;;;;;31.17;25.57;;;;;;;23.06;100.00;100475.58;1676012;83;21425;-90
2021/08/01 21:33:27;;;;;;;33.67;25.70;;;;;;;23.08;100.00;100475.36;1725561;81;21796;-86
2021/08/01 21:35:55;;;;;;;29.65;25.77;;;;;;;23.09;100.00;100471.16;1687361;83;21596;-89
2021/08/01 21:38:22;;;;;;;28.27;25.48;;;;;;;23.13;100.00;100471.58;1702987;81;21591;-86
2021/08/01 21:40:50;;;;;;;28.60;25.25;;;;;;;23.15;100.00;100465.05;1712475;81;21012;-87
2021/08/01 21:43:17;;;;;;;27.10;24.20;;;;;;;23.18;100.00;100474.50;1692779;81;21615;-88
2021/08/01 21:45:46;;;;;;;26.73;24.05;;;;;;;23.18;100.00;100473.66;1734277;81;21060;-87
2021/08/01 21:48:13;;;;;;;28.20;25.15;;;;;;;23.12;100.00;100476.58;1712409;82;21026;-89
2021/08/01 21:50:40;;;;;;;26.70;23.57;;;;;;;23.07;100.00;100474.55;1695947;82;21464;-87
2021/08/01 21:53:07;;;;;;;28.45;25.52;;;;;;;23.00;100.00;100466.56;1689035;82;21009;-88
2021/08/01 21:55:34;;;;;;;29.15;24.72;;;;;;;22.98;100.00;100466.47;1675477;83;20950;-87
2021/08/01 21:58:01;;;;;;;33.80;23.98;;;;;;;22.99;100.00;100464.93;1673344;84;21116;-88
2021/08/01 22:00:28;;;;;;;28.52;24.35;;;;;;;22.97;100.00;100459.00;1676510;84;21101;-90
2021/08/01 22:03:10;;;;;;;27.95;25.05;;;;;;;22.98;100.00;100459.83;1685550;84;21092;-90
2021/08/01 22:05:40;;;;;;;28.62;25.77;;;;;;;22.98;100.00;100456.66;1661603;84;21021;-89
2021/08/01 22:08:09;;;;;;;31.57;27.80;;;;;;;23.00;100.00;100459.93;1681513;84;21061;-87
2021/08/01 22:10:37;;;;;;;32.90;28.75;;;;;;;23.05;100.00;100454.52;1685313;83;21165;-91
2021/08/01 22:13:04;;;;;;;33.28;29.85;;;;;;;23.04;100.00;100455.03;1686527;83;20957;-91
2021/08/01 22:15:32;;;;;;;36.33;29.05;;;;;;;23.06;100.00;100456.15;1679097;84;21020;-87
2021/08/01 22:18:02;;;;;;;33.75;28.67;;;;;;;23.10;100.00;100460.05;1683641;85;21131;-88